Time;durP1;ratioP1;P1;durP2;ratioP2;P2;SDS_P1;SDS_P2;PMS_P1;PMS_P2;Temp;Humidity;BMP_temperature;BMP_pressure;BME280_temperature;BME280_humidity;BME280_pressure;Samples;Min_cycle;Max_cycle;Signal;HPM_P1;HPM_P2
2021/04/14 00:08:10;;;;;;;12.63;4.15;;;;;;;;;;4333630;28;20117;-58
2021/04/14 00:10:37;;;;;;;5.25;3.22;;;;;;;;;;4217066;33;20091;-57
2021/04/14 00:13:08;;;;;;;7.50;3.53;;;;;;;;;;4219104;34;20101;-56
2021/04/14 00:15:37;;;;;;;11.98;4.00;;;;;;;;;;4219331;34;20113;-57
2021/04/14 00:18:13;;;;;;;11.20;3.33;;;;;;;;;;4206224;34;20113;-57
2021/04/14 00:20:39;;;;;;;6.18;3.42;;;;;;;;;;4219143;34;20098;-56
2021/04/14 00:23:07;;;;;;;7.87;3.80;;;;;;;;;;4205664;34;20144;-56
2021/04/14 00:25:42;;;;;;;13.68;4.15;;;;;;;;;;4219321;34;20101;-56
2021/04/14 00:28:15;;;;;;;10.68;3.45;;;;;;;;;;4219037;34;20143;-58
2021/04/14 00:33:28;;;;;;;13.05;4.45;;;;;;;;;;4235894;28;20093;-58
2021/04/14 00:35:58;;;;;;;6.50;3.65;;;;;;;;;;4219112;34;20116;-58
2021/04/14 00:38:27;;;;;;;7.35;3.60;;;;;;;;;;4205107;34;20129;-58
2021/04/14 00:41:00;;;;;;;7.25;3.78;;;;;;;;;;4204925;34;20118;-56
2021/04/14 00:43:29;;;;;;;10.43;3.62;;;;;;;;;;4181443;34;20130;-57
2021/04/14 00:46:05;;;;;;;6.97;3.67;;;;;;;;;;4205158;34;20533;-56
2021/04/14 00:48:34;;;;;;;11.85;3.75;;;;;;;;;;4204241;34;20182;-55
2021/04/14 00:51:01;;;;;;;13.73;3.40;;;;;;;;;;4204808;34;20112;-55
2021/04/14 00:53:31;;;;;;;12.30;3.55;;;;;;;;;;4205451;34;20430;-54
2021/04/14 00:55:58;;;;;;;6.35;3.28;;;;;;;;;;4204056;34;20533;-57
2021/04/14 00:58:25;;;;;;;9.02;4.50;;;;;;;;;;4205207;34;20525;-55
2021/04/14 01:03:44;;;;;;;12.45;4.40;;;;;;;;;;4207273;34;20124;-54
2021/04/14 01:06:22;;;;;;;8.55;3.80;;;;;;;;;;4216885;34;20086;-58
2021/04/14 01:08:58;;;;;;;7.65;3.45;;;;;;;;;;4182765;34;20105;-58
2021/04/14 01:11:26;;;;;;;14.07;4.57;;;;;;;;;;4192010;34;20094;-57
2021/04/14 01:13:59;;;;;;;13.20;4.70;;;;;;;;;;4204869;34;20117;-57
2021/04/14 01:16:30;;;;;;;17.10;4.32;;;;;;;;;;4192135;34;20114;-57
2021/04/14 01:18:59;;;;;;;11.38;3.97;;;;;;;;;;4204831;34;20106;-57
2021/04/14 01:21:42;;;;;;;12.52;4.20;;;;;;;;;;4192532;34;20132;-57
2021/04/14 01:24:12;;;;;;;12.73;4.43;;;;;;;;;;4204855;34;20193;-59
2021/04/14 01:26:51;;;;;;;9.15;3.50;;;;;;;;;;4192954;34;20546;-59
2021/04/14 01:29:23;;;;;;;9.18;4.18;;;;;;;;;;4181729;34;20106;-55
2021/04/14 01:31:56;;;;;;;8.70;3.65;;;;;;;;;;4204287;34;20200;-54
2021/04/14 01:34:29;;;;;;;8.13;3.78;;;;;;;;;;4204647;34;20217;-56
2021/04/14 01:36:57;;;;;;;7.97;3.65;;;;;;;;;;4204445;34;20109;-56
2021/04/14 01:39:26;;;;;;;11.52;4.10;;;;;;;;;;4191753;34;20114;-56
2021/04/14 01:41:57;;;;;;;10.90;4.70;;;;;;;;;;4204355;34;20126;-56
2021/04/14 01:44:26;;;;;;;9.85;3.95;;;;;;;;;;4192107;34;20180;-56
2021/04/14 01:46:55;;;;;;;7.37;4.20;;;;;;;;;;4204419;34;20097;-56
2021/04/14 01:49:25;;;;;;;8.27;3.87;;;;;;;;;;4204135;34;20117;-55
2021/04/14 01:51:52;;;;;;;9.18;3.72;;;;;;;;;;4204340;34;20102;-54
2021/04/14 01:54:19;;;;;;;10.18;3.55;;;;;;;;;;4191541;34;20209;-56
2021/04/14 01:56:55;;;;;;;12.10;4.97;;;;;;;;;;4191388;34;20105;-57
2021/04/14 01:59:26;;;;;;;10.90;4.22;;;;;;;;;;4192713;34;20213;-56
2021/04/14 02:02:03;;;;;;;7.75;4.05;;;;;;;;;;4208505;34;20106;-56
2021/04/14 02:04:37;;;;;;;9.00;4.07;;;;;;;;;;4216798;34;20422;-55
2021/04/14 02:07:04;;;;;;;9.88;3.80;;;;;;;;;;4206368;34;20492;-56
2021/04/14 02:09:32;;;;;;;6.22;3.60;;;;;;;;;;4220366;34;20097;-57
2021/04/14 02:12:03;;;;;;;9.63;5.37;;;;;;;;;;4206604;34;20132;-55
2021/04/14 02:14:32;;;;;;;7.97;4.12;;;;;;;;;;4220339;34;20109;-55
2021/04/14 02:17:02;;;;;;;9.20;4.20;;;;;;;;;;4220124;33;20181;-57
2021/04/14 02:19:32;;;;;;;8.82;3.17;;;;;;;;;;4220171;34;20112;-55
2021/04/14 02:22:00;;;;;;;9.30;3.65;;;;;;;;;;4220018;33;20100;-50
2021/04/14 02:24:26;;;;;;;8.55;4.20;;;;;;;;;;4220177;34;20141;-51
2021/04/14 02:26:55;;;;;;;19.42;4.70;;;;;;;;;;4219796;33;20565;-50
2021/04/14 02:29:23;;;;;;;10.38;4.30;;;;;;;;;;4207577;34;20493;-51
2021/04/14 02:31:49;;;;;;;12.10;3.95;;;;;;;;;;4219882;33;20476;-54
2021/04/14 02:34:15;;;;;;;9.20;4.30;;;;;;;;;;4219865;34;20140;-55
2021/04/14 02:36:48;;;;;;;9.18;4.12;;;;;;;;;;4207075;34;20460;-56
2021/04/14 02:39:15;;;;;;;10.93;4.43;;;;;;;;;;4219825;34;20140;-56
2021/04/14 02:41:41;;;;;;;12.90;4.20;;;;;;;;;;4206711;34;20571;-56
2021/04/14 02:44:11;;;;;;;13.25;4.50;;;;;;;;;;4206936;34;20196;-56
2021/04/14 02:46:43;;;;;;;15.13;4.60;;;;;;;;;;4219896;33;20153;-56
2021/04/14 02:49:11;;;;;;;8.63;3.97;;;;;;;;;;4220145;34;20183;-57
2021/04/14 02:51:42;;;;;;;10.57;4.20;;;;;;;;;;4219961;33;20114;-59
2021/04/14 02:54:11;;;;;;;13.68;4.53;;;;;;;;;;4207258;34;20480;-57
2021/04/14 02:56:39;;;;;;;12.90;4.32;;;;;;;;;;4206623;34;20129;-56
2021/04/14 02:59:06;;;;;;;9.07;4.43;;;;;;;;;;4207005;34;20350;-57
2021/04/14 03:01:33;;;;;;;17.77;5.18;;;;;;;;;;4206587;34;20101;-56
2021/04/14 03:04:01;;;;;;;11.43;4.85;;;;;;;;;;4206667;34;20222;-57
2021/04/14 03:06:28;;;;;;;10.65;4.37;;;;;;;;;;4219586;34;20125;-56
2021/04/14 03:08:55;;;;;;;14.82;5.87;;;;;;;;;;4206647;34;20220;-54
2021/04/14 03:11:24;;;;;;;13.50;5.03;;;;;;;;;;4219269;34;20839;-56
2021/04/14 03:14:08;;;;;;;12.07;4.37;;;;;;;;;;4219717;34;20124;-56
2021/04/14 03:16:36;;;;;;;12.60;5.07;;;;;;;;;;4219645;34;20113;-58
2021/04/14 03:19:06;;;;;;;15.23;4.97;;;;;;;;;;4206783;34;20094;-55
2021/04/14 03:21:33;;;;;;;11.60;4.35;;;;;;;;;;4219480;34;20120;-49
2021/04/14 03:24:04;;;;;;;22.62;5.18;;;;;;;;;;4219623;34;20110;-58
2021/04/14 03:26:31;;;;;;;19.37;4.70;;;;;;;;;;4219697;34;20213;-54
2021/04/14 03:29:01;;;;;;;11.12;4.00;;;;;;;;;;4219681;34;20137;-55
2021/04/14 03:31:36;;;;;;;8.38;3.97;;;;;;;;;;4219595;34;20116;-55
2021/04/14 03:34:19;;;;;;;17.12;4.93;;;;;;;;;;4196262;34;20105;-55
2021/04/14 03:36:53;;;;;;;9.60;4.68;;;;;;;;;;4219550;34;20125;-56
2021/04/14 03:39:28;;;;;;;9.53;3.43;;;;;;;;;;4207193;34;20089;-56
2021/04/14 03:42:09;;;;;;;22.00;5.03;;;;;;;;;;4219198;33;20128;-56
2021/04/14 03:44:37;;;;;;;8.40;4.28;;;;;;;;;;4219575;34;20492;-55
2021/04/14 03:47:08;;;;;;;12.00;3.83;;;;;;;;;;4219397;33;20200;-51
2021/04/14 03:49:37;;;;;;;9.77;4.37;;;;;;;;;;4206827;34;20209;-51
2021/04/14 03:52:08;;;;;;;9.40;3.83;;;;;;;;;;4207033;34;20210;-53
2021/04/14 03:54:43;;;;;;;15.68;4.32;;;;;;;;;;4219382;34;20129;-55
2021/04/14 03:57:21;;;;;;;7.90;3.45;;;;;;;;;;4219374;33;20125;-54
2021/04/14 03:59:49;;;;;;;22.65;4.45;;;;;;;;;;4206944;34;20098;-53
2021/04/14 04:05:57;;;;;;;13.73;4.45;;;;;;;;;;4216734;33;20089;-55
2021/04/14 04:08:49;;;;;;;28.57;5.30;;;;;;;;;;4219313;34;20085;-52
2021/04/14 04:11:19;;;;;;;24.90;4.47;;;;;;;;;;4218836;34;20104;-52
2021/04/14 04:13:50;;;;;;;35.75;4.62;;;;;;;;;;4206478;34;20113;-52
2021/04/14 04:16:18;;;;;;;16.67;4.28;;;;;;;;;;4219137;34;20128;-51
2021/04/14 04:18:48;;;;;;;12.85;4.78;;;;;;;;;;4219218;34;20179;-55
2021/04/14 04:21:18;;;;;;;23.52;5.20;;;;;;;;;;4218877;34;20232;-56
2021/04/14 04:23:46;;;;;;;25.10;5.12;;;;;;;;;;4219056;34;20112;-56
2021/04/14 04:26:15;;;;;;;22.08;4.75;;;;;;;;;;4205923;34;20098;-56
2021/04/14 04:28:47;;;;;;;9.20;4.50;;;;;;;;;;4219133;34;20129;-53
2021/04/14 04:31:21;;;;;;;17.25;4.35;;;;;;;;;;4206763;34;20104;-55
2021/04/14 04:33:48;;;;;;;26.08;6.47;;;;;;;;;;4218838;34;20127;-52
2021/04/14 04:36:17;;;;;;;11.07;5.40;;;;;;;;;;4206061;34;20512;-55
2021/04/14 04:38:47;;;;;;;11.60;5.47;;;;;;;;;;4206633;34;20536;-55
2021/04/14 04:41:22;;;;;;;23.67;5.30;;;;;;;;;;4194964;34;20125;-52
2021/04/14 04:43:53;;;;;;;18.25;5.62;;;;;;;;;;4218802;34;20495;-55
2021/04/14 04:46:28;;;;;;;12.07;4.03;;;;;;;;;;4218625;34;20125;-55
2021/04/14 04:48:56;;;;;;;17.00;4.72;;;;;;;;;;4218977;34;20109;-56
2021/04/14 04:51:32;;;;;;;17.83;4.97;;;;;;;;;;4218833;34;20136;-53
2021/04/14 04:54:12;;;;;;;23.17;6.28;;;;;;;;;;4207557;34;20224;-53
2021/04/14 04:56:45;;;;;;;18.35;3.67;;;;;;;;;;4218446;34;20097;-54
2021/04/14 04:59:15;;;;;;;13.15;3.72;;;;;;;;;;4206133;34;20193;-54
2021/04/14 05:01:48;;;;;;;18.77;4.10;;;;;;;;;;4218512;33;20213;-55
2021/04/14 05:04:22;;;;;;;16.60;4.45;;;;;;;;;;4218651;34;20132;-56
2021/04/14 05:06:57;;;;;;;13.85;4.15;;;;;;;;;;4206330;34;20136;-56
2021/04/14 05:09:27;;;;;;;11.50;4.82;;;;;;;;;;4218842;34;20218;-57
2021/04/14 05:11:57;;;;;;;16.20;4.18;;;;;;;;;;4218299;34;20105;-54
2021/04/14 05:14:25;;;;;;;19.90;4.60;;;;;;;;;;4218415;34;20201;-55
2021/04/14 05:16:57;;;;;;;16.87;5.05;;;;;;;;;;4218420;34;20131;-53
2021/04/14 05:19:25;;;;;;;21.95;4.68;;;;;;;;;;4205531;34;20128;-54
2021/04/14 05:21:58;;;;;;;18.40;4.65;;;;;;;;;;4218221;34;20220;-54
2021/04/14 05:24:30;;;;;;;16.60;4.82;;;;;;;;;;4195397;34;20208;-54
2021/04/14 05:26:56;;;;;;;13.15;5.12;;;;;;;;;;4218111;34;20197;-54
2021/04/14 05:29:23;;;;;;;13.70;4.65;;;;;;;;;;4205409;34;20444;-54
2021/04/14 05:31:52;;;;;;;13.02;5.47;;;;;;;;;;4218327;34;20163;-54
2021/04/14 05:34:20;;;;;;;12.68;4.80;;;;;;;;;;4205521;34;20212;-54
2021/04/14 05:36:49;;;;;;;19.62;4.87;;;;;;;;;;4205196;34;20125;-55
2021/04/14 05:39:15;;;;;;;15.05;5.10;;;;;;;;;;4205373;34;20120;-54
2021/04/14 05:41:44;;;;;;;25.88;4.32;;;;;;;;;;4206376;34;20233;-55
2021/04/14 05:44:11;;;;;;;14.30;4.28;;;;;;;;;;4220240;34;20117;-52
2021/04/14 05:46:41;;;;;;;6.18;3.85;;;;;;;;;;4207602;34;20569;-55
2021/04/14 05:49:08;;;;;;;14.13;4.50;;;;;;;;;;4207704;34;20290;-54
2021/04/14 05:51:37;;;;;;;51.33;5.78;;;;;;;;;;4220608;33;20217;-54
2021/04/14 05:54:04;;;;;;;24.08;4.15;;;;;;;;;;4207549;34;20124;-57
2021/04/14 05:56:34;;;;;;;21.00;3.85;;;;;;;;;;4220344;33;20204;-57
2021/04/14 05:59:02;;;;;;;25.10;5.55;;;;;;;;;;4220475;34;20177;-54
2021/04/14 06:01:30;;;;;;;11.05;3.78;;;;;;;;;;4207283;34;20544;-54
2021/04/14 06:03:57;;;;;;;12.60;3.85;;;;;;;;;;4195717;34;20129;-54
2021/04/14 06:06:25;;;;;;;5.50;3.40;;;;;;;;;;4220090;33;20120;-52
2021/04/14 06:08:52;;;;;;;11.25;4.93;;;;;;;;;;4207356;34;20090;-50
2021/04/14 06:11:19;;;;;;;11.93;3.80;;;;;;;;;;4207286;34;20506;-51
2021/04/14 06:13:55;;;;;;;27.13;4.97;;;;;;;;;;4195606;34;20109;-54
2021/04/14 06:16:22;;;;;;;27.62;4.80;;;;;;;;;;4219993;34;20204;-53
2021/04/14 06:18:48;;;;;;;14.32;4.10;;;;;;;;;;4207281;34;20125;-52
2021/04/14 06:21:17;;;;;;;20.23;4.70;;;;;;;;;;4207105;34;20117;-53
2021/04/14 06:23:46;;;;;;;12.40;3.35;;;;;;;;;;4220048;34;20604;-51
2021/04/14 06:26:28;;;;;;;13.60;4.07;;;;;;;;;;4207379;34;20133;-50
2021/04/14 06:29:03;;;;;;;8.23;3.65;;;;;;;;;;4220324;34;20112;-50
2021/04/14 06:31:30;;;;;;;10.27;3.55;;;;;;;;;;4220116;34;20114;-49
2021/04/14 06:33:57;;;;;;;9.98;3.92;;;;;;;;;;4206978;34;20120;-52
2021/04/14 06:36:27;;;;;;;19.27;4.28;;;;;;;;;;4219989;34;20192;-49
2021/04/14 06:38:54;;;;;;;11.32;4.28;;;;;;;;;;4218699;34;20140;-49
2021/04/14 06:41:49;;;;;;;14.55;4.20;;;;;;;;;;4206863;34;20095;-49
2021/04/14 06:44:38;;;;;;;15.73;4.07;;;;;;;;;;4219766;34;20152;-50
2021/04/14 06:47:25;;;;;;;8.15;3.53;;;;;;;;;;4219855;34;20562;-49
2021/04/14 06:50:02;;;;;;;16.83;3.62;;;;;;;;;;4207920;34;20132;-49
2021/04/14 06:52:32;;;;;;;;;;;;;;;;;;4206526;34;20540;-50
2021/04/14 06:55:16;;;;;;;6.70;3.12;;;;;;;;;;4206988;34;20012;-51
2021/04/14 06:57:46;;;;;;;14.63;4.13;;;;;;;;;;4195740;34;20140;-49
2021/04/14 07:00:22;;;;;;;11.18;3.60;;;;;;;;;;4196269;34;20480;-51
2021/04/14 07:03:16;;;;;;;8.23;3.90;;;;;;;;;;4206932;34;20140;-50
2021/04/14 07:05:48;;;;;;;4.78;2.80;;;;;;;;;;4219837;34;20225;-49
2021/04/14 07:08:26;;;;;;;7.20;3.67;;;;;;;;;;4196776;34;20121;-52
2021/04/14 07:11:02;;;;;;;9.07;3.53;;;;;;;;;;4207280;34;20102;-49
2021/04/14 07:13:32;;;;;;;11.90;3.60;;;;;;;;;;4207512;34;20093;-51
2021/04/14 07:16:10;;;;;;;9.05;3.10;;;;;;;;;;4195255;34;20109;-50
2021/04/14 07:18:58;;;;;;;9.35;3.15;;;;;;;;;;4207605;34;20109;-49
2021/04/14 07:21:34;;;;;;;4.82;2.83;;;;;;;;;;4206354;34;20097;-49
2021/04/14 07:24:20;;;;;;;16.35;4.93;;;;;;;;;;4195653;34;20177;-48
2021/04/14 07:27:06;;;;;;;15.48;2.97;;;;;;;;;;4208632;34;20102;-47
2021/04/14 07:29:39;;;;;;;10.77;3.72;;;;;;;;;;4207877;34;20089;-47
2021/04/14 07:32:37;;;;;;;7.60;3.58;;;;;;;;;;4195294;34;20238;-50
2021/04/14 07:35:11;;;;;;;13.30;3.35;;;;;;;;;;4219556;34;20125;-48
2021/04/14 07:37:57;;;;;;;;;;;;;;;;;;4207012;34;20133;-47
2021/04/14 07:41:03;;;;;;;15.75;3.97;;;;;;;;;;4217947;34;19973;-48
2021/04/14 07:43:49;;;;;;;27.35;4.50;;;;;;;;;;4219261;34;20109;-49
2021/04/14 07:46:19;;;;;;;12.82;3.65;;;;;;;;;;4218020;34;20127;-50
2021/04/14 07:48:46;;;;;;;30.37;11.55;;;;;;;;;;4195700;34;20129;-49
2021/04/14 07:51:19;;;;;;;17.52;8.07;;;;;;;;;;4206215;34;20114;-49
2021/04/14 07:54:07;;;;;;;13.68;4.65;;;;;;;;;;4206862;34;20613;-49
2021/04/14 07:56:51;;;;;;;12.13;4.72;;;;;;;;;;4219213;34;20212;-49
2021/04/14 07:59:47;;;;;;;19.02;4.12;;;;;;;;;;4219086;34;20114;-52
2021/04/14 08:02:31;;;;;;;12.20;4.22;;;;;;;;;;4203961;34;20132;-50
2021/04/14 08:05:10;;;;;;;15.57;7.18;;;;;;;;;;4218863;34;20220;-50
2021/04/14 08:07:43;;;;;;;42.58;15.52;;;;;;;;;;4206470;34;20106;-50
2021/04/14 08:10:30;;;;;;;18.65;7.43;;;;;;;;;;4219089;34;20109;-52
2021/04/14 08:13:05;;;;;;;27.35;6.40;;;;;;;;;;4206361;34;20102;-50
2021/04/14 08:15:42;;;;;;;20.55;6.37;;;;;;;;;;4218938;34;20181;-50
2021/04/14 08:18:17;;;;;;;10.93;4.72;;;;;;;;;;4218986;34;20117;-50
2021/04/14 08:21:04;;;;;;;8.60;5.10;;;;;;;;;;4218638;34;20121;-48
2021/04/14 08:23:31;;;;;;;10.20;3.42;;;;;;;;;;4219030;34;20104;-51
2021/04/14 08:26:00;;;;;;;7.00;2.80;;;;;;;;;;4218585;34;20140;-51
2021/04/14 08:28:40;;;;;;;12.80;3.53;;;;;;;;;;4219147;34;20522;-56
2021/04/14 08:31:08;;;;;;;8.27;2.72;;;;;;;;;;4218815;34;20553;-58
2021/04/14 08:33:41;;;;;;;12.82;3.25;;;;;;;;;;4206402;34;20200;-57
2021/04/14 08:36:39;;;;;;;10.07;3.42;;;;;;;;;;4206181;34;20124;-58
2021/04/14 08:39:22;;;;;;;11.73;3.65;;;;;;;;;;4208451;34;20113;-56
2021/04/14 08:41:49;;;;;;;4.18;2.65;;;;;;;;;;4206475;34;20147;-57
2021/04/14 08:44:29;;;;;;;11.25;3.30;;;;;;;;;;4206071;34;20100;-59
2021/04/14 08:47:06;;;;;;;7.22;3.30;;;;;;;;;;4207151;34;20117;-58
2021/04/14 08:49:39;;;;;;;9.65;3.45;;;;;;;;;;4218962;34;20109;-47
2021/04/14 08:52:09;;;;;;;11.35;3.47;;;;;;;;;;4205784;34;20197;-48
2021/04/14 08:54:39;;;;;;;9.65;4.03;;;;;;;;;;4206162;34;20102;-47
2021/04/14 08:57:07;;;;;;;7.68;2.87;;;;;;;;;;4206121;34;20586;-48
2021/04/14 08:59:34;;;;;;;8.77;3.15;;;;;;;;;;4206138;34;20097;-48
2021/04/14 09:02:03;;;;;;;10.52;3.28;;;;;;;;;;4194414;34;20128;-48
2021/04/14 09:04:32;;;;;;;7.85;3.12;;;;;;;;;;4206041;34;20085;-47
2021/04/14 09:07:03;;;;;;;10.20;3.80;;;;;;;;;;4205647;34;20546;-50
2021/04/14 09:09:33;;;;;;;6.00;2.87;;;;;;;;;;4218677;34;20488;-47
2021/04/14 09:12:09;;;;;;;15.60;3.53;;;;;;;;;;4218525;34;20105;-50
2021/04/14 09:14:36;;;;;;;8.43;2.47;;;;;;;;;;4218397;34;20121;-47
2021/04/14 09:17:14;;;;;;;9.10;3.50;;;;;;;;;;4204622;34;20537;-46
2021/04/14 09:19:43;;;;;;;13.73;2.92;;;;;;;;;;4218499;34;20113;-47
2021/04/14 09:22:10;;;;;;;5.25;2.50;;;;;;;;;;4205646;34;20180;-49
2021/04/14 09:24:46;;;;;;;14.70;4.85;;;;;;;;;;4218593;34;20100;-48
2021/04/14 09:27:35;;;;;;;11.35;2.40;;;;;;;;;;4206481;34;20117;-48
2021/04/14 09:30:15;;;;;;;15.23;3.30;;;;;;;;;;4218745;34;20466;-52
2021/04/14 09:33:16;;;;;;;13.85;4.40;;;;;;;;;;4204578;34;20102;-53
2021/04/14 09:36:00;;;;;;;8.27;2.62;;;;;;;;;;4212799;34;20237;-52
2021/04/14 09:38:51;;;;;;;5.50;2.22;;;;;;;;;;4218721;34;20506;-51
2021/04/14 09:41:53;;;;;;;6.30;3.10;;;;;;;;;;4218102;34;20131;-46
2021/04/14 09:44:42;;;;;;;9.75;2.40;;;;;;;;;;4218215;34;20208;-46
2021/04/14 09:47:25;;;;;;;13.00;3.95;;;;;;;;;;4248887;28;20233;-49
2021/04/14 09:49:53;;;;;;;19.40;4.53;;;;;;;;;;4220195;33;20093;-50
2021/04/14 09:52:55;;;;;;;7.57;3.35;;;;;;;;;;4224081;33;20117;-52
2021/04/14 09:58:57;;;;;;;9.20;3.60;;;;;;;;;;4206716;28;20109;-49
2021/04/14 10:01:45;;;;;;;6.03;2.87;;;;;;;;;;4215056;34;20350;-55
2021/04/14 10:04:26;;;;;;;9.25;3.65;;;;;;;;;;4193769;34;20185;-45
2021/04/14 10:07:04;;;;;;;9.07;3.75;;;;;;;;;;4217558;34;20228;-49
2021/04/14 10:09:32;;;;;;;12.75;4.53;;;;;;;;;;4205222;34;20112;-47
2021/04/14 10:12:13;;;;;;;11.45;4.03;;;;;;;;;;4193558;34;20109;-47
2021/04/14 10:14:59;;;;;;;7.40;3.30;;;;;;;;;;4218196;34;20086;-47
2021/04/14 10:17:30;;;;;;;11.98;3.00;;;;;;;;;;4286663;28;20184;-55
2021/04/14 10:20:25;;;;;;;7.60;3.15;;;;;;;;;;4199376;34;20117;-52
2021/04/14 10:22:55;;;;;;;8.05;2.58;;;;;;;;;;4206045;34;20125;-50
2021/04/14 10:25:34;;;;;;;11.52;3.45;;;;;;;;;;4204997;34;20132;-50
2021/04/14 10:28:03;;;;;;;12.30;3.60;;;;;;;;;;4206803;34;20128;-47
2021/04/14 10:30:34;;;;;;;13.02;2.83;;;;;;;;;;4219461;33;20108;-58
2021/04/14 10:33:28;;;;;;;8.95;3.10;;;;;;;;;;4207225;34;20137;-45
2021/04/14 10:36:10;;;;;;;10.38;3.78;;;;;;;;;;4204923;33;20101;-46
2021/04/14 10:38:39;;;;;;;17.25;4.53;;;;;;;;;;4219921;34;20536;-48
2021/04/14 10:41:34;;;;;;;8.45;4.10;;;;;;;;;;4207171;34;20117;-49
2021/04/14 10:44:02;;;;;;;9.02;2.92;;;;;;;;;;4202925;34;20131;-47
2021/04/14 10:46:35;;;;;;;14.45;3.67;;;;;;;;;;4193532;34;20137;-48
2021/04/14 10:49:04;;;;;;;21.12;3.67;;;;;;;;;;4182161;34;20105;-49
2021/04/14 10:51:57;;;;;;;14.95;3.28;;;;;;;;;;4214424;33;20110;-47
2021/04/14 10:54:31;;;;;;;5.62;2.72;;;;;;;;;;4204298;34;20596;-49
2021/04/14 10:57:10;;;;;;;23.58;4.18;;;;;;;;;;4219537;33;20109;-47
2021/04/14 10:59:39;;;;;;;12.48;3.62;;;;;;;;;;4219940;34;20102;-50
2021/04/14 11:02:18;;;;;;;13.23;3.87;;;;;;;;;;4206992;34;20115;-49
2021/04/14 11:04:51;;;;;;;21.73;5.25;;;;;;;;;;4208511;34;20097;-49
2021/04/14 11:07:24;;;;;;;11.65;3.42;;;;;;;;;;4196834;34;20108;-47
2021/04/14 11:10:03;;;;;;;9.43;3.22;;;;;;;;;;4219937;34;20117;-50
2021/04/14 11:13:04;;;;;;;17.67;3.83;;;;;;;;;;4208125;34;20105;-47
2021/04/14 11:15:38;;;;;;;13.75;3.40;;;;;;;;;;4219817;34;20125;-53
2021/04/14 11:18:08;;;;;;;7.00;3.20;;;;;;;;;;4195834;34;20509;-50
2021/04/14 11:20:59;;;;;;;6.00;2.70;;;;;;;;;;4219859;34;20409;-52
2021/04/14 11:23:30;;;;;;;10.80;3.60;;;;;;;;;;4207847;34;20506;-47
2021/04/14 11:26:11;;;;;;;6.28;3.17;;;;;;;;;;4220170;34;20619;-45
2021/04/14 11:28:55;;;;;;;12.18;3.17;;;;;;;;;;4207760;34;20140;-47
2021/04/14 11:31:37;;;;;;;13.88;3.22;;;;;;;;;;4207235;34;20121;-54
2021/04/14 11:34:24;;;;;;;6.47;2.08;;;;;;;;;;4206189;34;20127;-50
2021/04/14 11:37:25;;;;;;;6.25;3.15;;;;;;;;;;4218727;34;20127;-49
2021/04/14 11:40:46;;;;;;;13.95;3.50;;;;;;;;;;4202554;34;20504;-48
2021/04/14 11:43:39;;;;;;;10.02;3.83;;;;;;;;;;4215200;34;20127;-52
2021/04/14 11:47:02;;;;;;;9.88;3.15;;;;;;;;;;4198246;34;20108;-51
2021/04/14 11:49:38;;;;;;;14.90;3.40;;;;;;;;;;4218603;34;20419;-49
2021/04/14 11:52:37;;;;;;;1.58;1.48;;;;;;;;;;4207096;34;20121;-53
2021/04/14 11:55:22;;;;;;;4.62;2.33;;;;;;;;;;4219156;34;20124;-54
2021/04/14 11:58:38;;;;;;;4.55;1.98;;;;;;;;;;4219181;34;20094;-52
2021/04/14 12:01:06;;;;;;;3.03;1.87;;;;;;;;;;4200238;34;20857;-50
2021/04/14 12:03:38;;;;;;;5.72;1.65;;;;;;;;;;4207182;34;20330;-55
2021/04/14 12:06:24;;;;;;;5.20;2.58;;;;;;;;;;4218473;33;20164;-46
2021/04/14 12:08:52;;;;;;;6.18;3.17;;;;;;;;;;4218088;34;20078;-54
2021/04/14 12:11:24;;;;;;;6.15;2.62;;;;;;;;;;4219311;34;20186;-50
2021/04/14 12:13:53;;;;;;;10.10;3.22;;;;;;;;;;4195112;34;20124;-54
2021/04/14 12:16:26;;;;;;;4.62;2.08;;;;;;;;;;4219257;34;20097;-51
2021/04/14 12:19:01;;;;;;;5.53;2.22;;;;;;;;;;4206572;34;20098;-50
2021/04/14 12:21:33;;;;;;;9.10;2.85;;;;;;;;;;4195657;34;20529;-52
2021/04/14 12:24:02;;;;;;;4.60;2.22;;;;;;;;;;4219437;34;20133;-50
2021/04/14 12:26:32;;;;;;;9.38;2.78;;;;;;;;;;4219343;34;20216;-49
2021/04/14 12:29:02;;;;;;;4.90;2.45;;;;;;;;;;4219291;34;20094;-49
2021/04/14 12:31:32;;;;;;;3.33;2.10;;;;;;;;;;4194836;34;20113;-49
2021/04/14 12:34:01;;;;;;;11.02;3.08;;;;;;;;;;4218698;34;20135;-49
2021/04/14 12:36:30;;;;;;;3.55;2.00;;;;;;;;;;4206598;34;20148;-56
2021/04/14 12:39:06;;;;;;;7.30;2.60;;;;;;;;;;4219159;34;20094;-54
2021/04/14 12:41:33;;;;;;;15.93;3.60;;;;;;;;;;4219092;34;20109;-52
2021/04/14 12:44:00;;;;;;;20.40;4.37;;;;;;;;;;4218849;34;20132;-53
2021/04/14 12:46:29;;;;;;;3.53;1.80;;;;;;;;;;4218816;34;20136;-53
2021/04/14 12:48:59;;;;;;;16.37;3.40;;;;;;;;;;4206898;34;20117;-46
2021/04/14 12:51:42;;;;;;;8.95;3.10;;;;;;;;;;4205138;34;20124;-47
2021/04/14 12:54:32;;;;;;;4.82;2.80;;;;;;;;;;4219030;34;20113;-50
2021/04/14 12:57:06;;;;;;;9.18;2.80;;;;;;;;;;4219150;34;20196;-47
2021/04/14 13:03:55;;;;;;;8.38;2.83;;;;;;;;;;4218117;34;20097;-51
2021/04/14 13:06:29;;;;;;;3.47;2.17;;;;;;;;;;4206096;34;20110;-49
2021/04/14 13:08:59;;;;;;;2.90;1.85;;;;;;;;;;4195000;34;20127;-45
2021/04/14 13:11:32;;;;;;;14.93;3.90;;;;;;;;;;4194828;34;20201;-46
2021/04/14 13:14:13;;;;;;;12.00;3.45;;;;;;;;;;4194379;34;20125;-47
2021/04/14 13:16:52;;;;;;;17.52;4.32;;;;;;;;;;4218423;34;20096;-49
2021/04/14 13:19:18;;;;;;;14.38;4.32;;;;;;;;;;4219121;34;20112;-51
2021/04/14 13:21:58;;;;;;;2.85;2.10;;;;;;;;;;4205878;34;20113;-52
2021/04/14 13:24:46;;;;;;;8.13;2.25;;;;;;;;;;4218756;34;20211;-45
2021/04/14 13:27:45;;;;;;;12.30;2.97;;;;;;;;;;4206278;34;20184;-47
2021/04/14 13:30:26;;;;;;;9.07;3.53;;;;;;;;;;4206059;34;20505;-49
2021/04/14 13:33:29;;;;;;;4.45;2.25;;;;;;;;;;4218627;34;20525;-49
2021/04/14 13:36:11;;;;;;;6.90;3.50;;;;;;;;;;4207681;34;20556;-51
2021/04/14 13:38:42;;;;;;;7.55;2.67;;;;;;;;;;4206048;34;20124;-48
2021/04/14 13:41:36;;;;;;;10.73;3.08;;;;;;;;;;4205396;34;20116;-50
2021/04/14 13:44:11;;;;;;;9.57;4.10;;;;;;;;;;4203903;34;20097;-50
2021/04/14 13:47:10;;;;;;;6.65;2.28;;;;;;;;;;4218600;34;20180;-49
2021/04/14 13:49:41;;;;;;;7.37;2.72;;;;;;;;;;4206603;34;20090;-48
2021/04/14 13:52:10;;;;;;;5.45;2.40;;;;;;;;;;4193679;34;20117;-45
2021/04/14 13:54:38;;;;;;;5.97;2.20;;;;;;;;;;4193762;34;20496;-48
2021/04/14 13:57:10;;;;;;;13.80;2.92;;;;;;;;;;4205302;34;20517;-52
2021/04/14 13:59:53;;;;;;;6.43;2.85;;;;;;;;;;4194972;34;20095;-46
2021/04/14 14:02:23;;;;;;;8.63;2.90;;;;;;;;;;4217414;33;20089;-47
2021/04/14 14:04:52;;;;;;;7.68;2.85;;;;;;;;;;4220434;34;20580;-52
2021/04/14 14:07:36;;;;;;;10.93;3.28;;;;;;;;;;4207823;34;20533;-53
2021/04/14 14:10:06;;;;;;;7.60;3.10;;;;;;;;;;4207596;34;20125;-51
2021/04/14 14:12:38;;;;;;;7.12;2.55;;;;;;;;;;4196263;34;20097;-52
2021/04/14 14:15:16;;;;;;;11.27;3.25;;;;;;;;;;4195970;34;20128;-49
2021/04/14 14:17:45;;;;;;;8.95;3.33;;;;;;;;;;4206922;34;20193;-46
2021/04/14 14:20:35;;;;;;;6.85;3.05;;;;;;;;;;4195995;34;20549;-49
2021/04/14 14:23:06;;;;;;;12.07;2.90;;;;;;;;;;4219439;34;20136;-51
2021/04/14 14:25:35;;;;;;;9.75;3.92;;;;;;;;;;4220271;34;20093;-54
2021/04/14 14:28:02;;;;;;;14.85;3.60;;;;;;;;;;4230133;28;20127;-48
2021/04/14 14:30:30;;;;;;;5.12;2.83;;;;;;;;;;4232849;33;20101;-45
2021/04/14 14:33:01;;;;;;;5.32;2.83;;;;;;;;;;4218700;33;20543;-47
2021/04/14 14:35:40;;;;;;;11.25;3.75;;;;;;;;;;4203700;34;20093;-48
2021/04/14 14:47:03;;;;;;;9.00;3.53;;;;;;;;;;4208200;34;20121;-49
2021/04/14 14:49:37;;;;;;;11.75;3.58;;;;;;;;;;4207642;34;20097;-48
2021/04/14 14:52:08;;;;;;;15.98;4.65;;;;;;;;;;4207715;34;20121;-52
2021/04/14 14:54:36;;;;;;;11.32;3.92;;;;;;;;;;4200271;34;20177;-53
2021/04/14 14:57:25;;;;;;;16.00;5.45;;;;;;;;;;4193582;34;20483;-49
2021/04/14 15:00:06;;;;;;;9.90;2.78;;;;;;;;;;4206178;34;20121;-53
2021/04/14 15:02:41;;;;;;;20.60;5.12;;;;;;;;;;4185707;34;20101;-46
2021/04/14 15:05:20;;;;;;;12.40;4.57;;;;;;;;;;4208514;34;20094;-52
2021/04/14 15:08:18;;;;;;;9.15;4.07;;;;;;;;;;4217461;33;20109;-56
2021/04/14 15:11:32;;;;;;;5.18;2.62;;;;;;;;;;4209849;33;20133;-51
2021/04/14 15:14:01;;;;;;;17.40;4.05;;;;;;;;;;4204448;34;20112;-48
2021/04/14 15:16:28;;;;;;;5.22;2.70;;;;;;;;;;4193329;34;20113;-49
2021/04/14 15:18:54;;;;;;;8.52;2.72;;;;;;;;;;4209399;34;20104;-48
2021/04/14 15:21:21;;;;;;;1.90;1.77;;;;;;;;;;4219549;34;20173;-47
2021/04/14 15:23:56;;;;;;;4.50;2.58;;;;;;;;;;4206514;34;20147;-51
2021/04/14 15:26:30;;;;;;;22.95;6.45;;;;;;;;;;4206725;34;20476;-59
2021/04/14 15:28:58;;;;;;;6.80;3.42;;;;;;;;;;4207073;34;20141;-52
2021/04/14 15:31:25;;;;;;;8.25;3.67;;;;;;;;;;4193012;34;20121;-55
2021/04/14 15:33:58;;;;;;;21.75;5.03;;;;;;;;;;4192916;34;20153;-56
2021/04/14 15:36:25;;;;;;;14.82;4.65;;;;;;;;;;4205680;34;20129;-52
2021/04/14 15:38:55;;;;;;;11.63;4.70;;;;;;;;;;4205636;34;20476;-52
2021/04/14 15:41:30;;;;;;;18.40;6.65;;;;;;;;;;4192861;34;20128;-50
2021/04/14 15:44:09;;;;;;;23.85;6.22;;;;;;;;;;4193985;34;20205;-47
2021/04/14 15:46:49;;;;;;;33.53;6.03;;;;;;;;;;4360110;28;20100;-48
2021/04/14 15:49:19;;;;;;;20.40;6.12;;;;;;;;;;4190776;34;20198;-47
2021/04/14 15:51:48;;;;;;;22.15;7.45;;;;;;;;;;4199686;34;20218;-55
2021/04/14 15:54:28;;;;;;;26.30;7.35;;;;;;;;;;4191762;34;20117;-58